createdAt,value
2019-02-05T00:01:08.600Z,21.69
2019-02-05T00:06:15.914Z,21.66
2019-02-05T00:11:23.381Z,21.81
2019-02-05T00:16:32.832Z,21.85
2019-02-05T00:21:41.372Z,21.93
2019-02-05T00:26:48.839Z,22.00
2019-02-05T00:31:56.819Z,22.10
2019-02-05T00:37:04.022Z,22.27
2019-02-05T00:42:11.391Z,22.20
2019-02-05T00:47:18.672Z,22.14
2019-02-05T00:52:25.927Z,22.10
2019-02-05T00:57:33.475Z,22.00
2019-02-05T01:02:41.035Z,22.00
2019-02-05T01:07:48.394Z,21.93
2019-02-05T01:12:56.046Z,21.89
2019-02-05T01:18:03.381Z,21.82
2019-02-05T01:23:10.899Z,21.84
2019-02-05T01:28:18.154Z,21.84
2019-02-05T01:33:25.563Z,21.83
2019-02-05T01:38:32.867Z,21.70
2019-02-05T01:43:40.375Z,21.68
2019-02-05T01:48:47.905Z,21.59
2019-02-05T01:53:55.391Z,21.58
2019-02-05T01:59:02.393Z,21.68
2019-02-05T02:04:09.593Z,21.73
2019-02-05T02:09:16.905Z,21.81
2019-02-05T02:14:23.895Z,21.94
2019-02-05T02:19:30.885Z,22.00
2019-02-05T02:24:37.889Z,22.16
2019-02-05T02:29:44.825Z,22.31
2019-02-05T02:34:52.854Z,22.45
2019-02-05T02:39:59.835Z,22.41
2019-02-05T02:45:07.828Z,22.39
2019-02-05T02:50:14.915Z,22.34
2019-02-05T02:55:21.846Z,22.19
2019-02-05T03:00:29.738Z,22.14
2019-02-05T03:05:36.741Z,22.11
2019-02-05T03:10:43.807Z,21.90
2019-02-05T03:16:02.177Z,21.77
2019-02-05T03:21:09.442Z,21.49
2019-02-05T03:26:16.485Z,21.41
2019-02-05T03:31:23.877Z,21.39
2019-02-05T03:36:30.965Z,21.53
2019-02-05T03:41:37.949Z,21.69
2019-02-05T03:46:44.949Z,21.85
2019-02-05T03:51:52.859Z,22.27
2019-02-05T03:56:59.969Z,22.40
2019-02-05T04:02:09.334Z,22.40
2019-02-05T04:07:16.706Z,22.51
2019-02-05T04:12:24.377Z,22.42
2019-02-05T04:17:32.865Z,22.41
2019-02-05T04:22:39.036Z,22.23
2019-02-05T04:27:47.454Z,22.00
2019-02-05T04:32:54.840Z,21.80
2019-02-05T04:38:01.461Z,21.77
2019-02-05T04:43:08.547Z,21.77
2019-02-05T04:48:15.660Z,21.69
2019-02-05T04:53:23.236Z,21.73
2019-02-05T04:58:30.225Z,21.70
2019-02-05T05:03:36.935Z,21.63
2019-02-05T05:08:44.034Z,21.68
2019-02-05T05:13:51.537Z,21.85
2019-02-05T05:18:58.645Z,21.93
2019-02-05T05:24:05.946Z,22.12
2019-02-05T05:29:12.945Z,22.28
2019-02-05T05:34:19.959Z,22.20
2019-02-05T05:39:27.028Z,22.08
2019-02-05T05:44:34.018Z,22.09
2019-02-05T05:49:41.389Z,22.23
2019-02-05T05:54:48.523Z,22.20
2019-02-05T05:59:55.690Z,22.18
2019-02-05T06:05:02.826Z,22.20
2019-02-05T06:10:09.915Z,22.09
2019-02-05T06:15:16.910Z,21.93
2019-02-05T06:20:23.909Z,21.91
2019-02-05T06:25:31.629Z,21.84
2019-02-05T06:30:38.845Z,21.74
2019-02-05T06:35:45.924Z,21.67
2019-02-05T06:40:52.911Z,21.50
2019-02-05T06:45:59.693Z,21.41
2019-02-05T06:51:06.804Z,21.56
2019-02-05T06:56:13.791Z,21.59
2019-02-05T07:01:20.992Z,21.80
2019-02-05T07:06:27.988Z,22.14
2019-02-05T07:11:34.982Z,22.43
2019-02-05T07:16:41.978Z,22.50
2019-02-05T07:21:48.771Z,22.45
2019-02-05T07:26:55.857Z,22.39
2019-02-05T07:32:02.877Z,22.39
2019-02-05T07:37:10.216Z,22.25
2019-02-05T07:42:16.946Z,21.93
2019-02-05T07:47:23.956Z,21.92
2019-02-05T07:52:30.938Z,21.91
2019-02-05T07:57:37.931Z,21.63
2019-02-05T08:02:45.377Z,21.43
2019-02-05T08:07:52.530Z,21.33
2019-02-05T08:12:59.641Z,21.42
2019-02-05T08:18:06.732Z,21.54
2019-02-05T08:23:14.848Z,21.65
2019-02-05T08:28:22.382Z,21.82
2019-02-05T08:33:29.451Z,21.97
2019-02-05T08:38:36.511Z,22.14
2019-02-05T08:43:43.437Z,22.04
2019-02-05T08:48:50.513Z,22.06
2019-02-05T08:53:57.576Z,22.15
2019-02-05T08:59:05.156Z,22.09
2019-02-05T09:04:12.653Z,22.19
2019-02-05T09:09:19.747Z,21.88
2019-02-05T09:14:28.221Z,21.90
2019-02-05T09:19:46.633Z,21.82
2019-02-05T09:24:53.826Z,21.70
2019-02-05T09:30:00.603Z,21.78
2019-02-05T09:35:07.837Z,21.94
2019-02-05T09:40:14.757Z,22.02
2019-02-05T09:45:21.620Z,21.84
2019-02-05T09:50:30.886Z,21.67
2019-02-05T09:55:38.335Z,21.70
2019-02-05T10:00:45.385Z,21.73
2019-02-05T10:05:52.870Z,21.77
2019-02-05T13:55:00.283Z,22.37
2019-02-05T14:00:09.070Z,22.68
2019-02-05T14:05:15.961Z,22.25
2019-02-05T14:10:24.613Z,22.12
2019-02-05T14:15:32.380Z,21.94
2019-02-05T14:20:40.638Z,21.97
2019-02-05T14:25:48.895Z,21.98
2019-02-05T14:30:56.368Z,21.99
2019-02-05T14:36:03.768Z,21.84
2019-02-05T14:41:10.972Z,21.98
2019-02-05T14:46:18.765Z,21.87
2019-02-05T14:51:25.981Z,21.83
2019-02-05T14:56:33.370Z,21.74
2019-02-05T15:01:43.114Z,21.82
2019-02-05T15:06:50.577Z,22.01
2019-02-05T15:11:57.842Z,21.83
2019-02-05T15:17:05.379Z,21.88
2019-02-05T15:22:12.755Z,21.99
2019-02-05T15:27:20.563Z,22.19
2019-02-05T15:33:19.917Z,22.29
2019-02-05T15:38:27.630Z,22.36
2019-02-05T15:43:34.646Z,22.29
2019-02-05T15:48:41.823Z,22.23
2019-02-05T15:53:49.126Z,22.18
2019-02-05T15:58:56.517Z,22.38
2019-02-05T16:04:03.960Z,22.26
2019-02-05T16:09:11.131Z,22.16
2019-02-05T16:14:18.457Z,22.20
2019-02-05T16:19:25.379Z,21.91
2019-02-05T16:24:33.367Z,21.57
2019-02-05T16:29:41.150Z,21.39
2019-02-05T16:34:48.646Z,21.62
2019-02-05T16:39:56.058Z,21.75
2019-02-05T16:45:03.974Z,21.89
2019-02-05T16:50:11.403Z,22.10
2019-02-05T16:55:18.931Z,22.17
2019-02-05T17:00:26.617Z,22.59
2019-02-05T17:05:33.991Z,22.66
2019-02-05T17:10:41.373Z,22.65
2019-02-05T17:15:48.690Z,22.62
2019-02-05T17:20:56.098Z,22.53
2019-02-05T17:26:03.481Z,22.38
2019-02-05T17:31:10.722Z,22.14
2019-02-05T17:36:19.236Z,21.91
2019-02-05T17:41:26.842Z,21.76
2019-02-05T17:46:34.404Z,21.57
2019-02-05T17:51:42.057Z,21.57
2019-02-05T17:56:49.388Z,21.65
2019-02-05T18:01:56.717Z,21.79
2019-02-05T18:07:04.374Z,21.85
2019-02-05T18:12:12.483Z,21.93
2019-02-05T18:17:20.036Z,22.29
2019-02-05T18:22:28.132Z,22.48
2019-02-05T18:27:36.859Z,22.56
2019-02-05T18:32:46.026Z,22.62
2019-02-05T18:37:54.021Z,22.64
2019-02-05T18:43:01.875Z,22.30
2019-02-05T18:48:08.872Z,22.09
2019-02-05T18:53:17.659Z,21.98
2019-02-05T18:58:26.868Z,21.99
2019-02-05T19:03:35.126Z,21.98
2019-02-05T19:08:43.570Z,21.95
2019-02-05T19:13:51.898Z,21.88
2019-02-05T19:19:00.835Z,22.00
2019-02-05T19:24:10.749Z,22.01
2019-02-05T19:29:19.514Z,21.85
2019-02-05T19:34:29.377Z,21.83
2019-02-05T19:39:38.873Z,22.07
2019-02-05T19:44:48.602Z,22.25
2019-02-05T19:49:57.630Z,21.83
2019-02-05T19:55:05.925Z,21.89
2019-02-05T20:00:25.659Z,21.93
2019-02-05T20:05:34.729Z,22.16
2019-02-05T23:02:46.676Z,22.33
2019-02-05T23:07:54.399Z,22.50
2019-02-05T23:13:05.500Z,22.62
2019-02-05T23:18:15.053Z,21.91
2019-02-05T23:23:24.613Z,21.85
2019-02-05T23:28:32.943Z,21.82
2019-02-05T23:33:41.026Z,21.80
2019-02-05T23:38:49.217Z,21.75
2019-02-05T23:43:57.949Z,21.66
2019-02-05T23:49:05.445Z,21.57
2019-02-05T23:54:14.064Z,21.50
2019-02-05T23:59:21.404Z,21.48
